Time;durP1;ratioP1;P1;durP2;ratioP2;P2;SDS_P1;SDS_P2;PMS_P1;PMS_P2;Temp;Humidity;BMP_temperature;BMP_pressure;BME280_temperature;BME280_humidity;BME280_pressure;Samples;Min_cycle;Max_cycle;Signal;HPM_P1;HPM_P2
2021/03/05 01:31:59;;;;;;;19.35;11.20;;;;;;;;;;5033853;28;20056;-70
2021/03/05 01:34:25;;;;;;;21.92;12.75;;;;;;;;;;5052078;28;20063;-72
2021/03/05 01:36:51;;;;;;;25.20;11.30;;;;;;;;;;5052346;28;20025;-73
2021/03/05 01:39:17;;;;;;;21.88;10.75;;;;;;;;;;5052335;28;20021;-73
2021/03/05 01:41:43;;;;;;;19.70;10.15;;;;;;;;;;5052554;28;20082;-72
2021/03/05 01:44:10;;;;;;;22.00;10.73;;;;;;;;;;5052091;28;20021;-77
2021/03/05 01:46:37;;;;;;;17.88;11.05;;;;;;;;;;5034669;28;20492;-73
2021/03/05 01:49:03;;;;;;;20.67;11.60;;;;;;;;;;5033120;28;20127;-71
2021/03/05 01:51:31;;;;;;;20.45;11.55;;;;;;;;;;5031310;28;20029;-74
2021/03/05 01:53:57;;;;;;;18.33;11.40;;;;;;;;;;5031163;28;20417;-72
2021/03/05 01:56:35;;;;;;;20.50;11.48;;;;;;;;;;5032116;28;20033;-70
2021/03/05 01:59:04;;;;;;;19.13;10.90;;;;;;;;;;5030834;28;20056;-73
2021/03/05 02:01:30;;;;;;;16.83;10.95;;;;;;;;;;5032206;28;20100;-71
2021/03/05 02:03:57;;;;;;;18.23;10.90;;;;;;;;;;5049341;28;20378;-72
2021/03/05 02:06:23;;;;;;;19.92;10.80;;;;;;;;;;5046059;28;20025;-72
2021/03/05 02:08:50;;;;;;;22.00;13.10;;;;;;;;;;5046304;28;20030;-70
2021/03/05 02:11:25;;;;;;;21.65;13.13;;;;;;;;;;5046130;28;20017;-69
2021/03/05 02:13:53;;;;;;;21.95;11.82;;;;;;;;;;5033640;28;20131;-70
2021/03/05 02:16:25;;;;;;;25.65;12.02;;;;;;;;;;5048315;28;20028;-70
2021/03/05 02:19:10;;;;;;;17.80;11.02;;;;;;;;;;5048943;28;20025;-72
2021/03/05 02:21:45;;;;;;;21.02;11.07;;;;;;;;;;5051478;28;20078;-70
2021/03/05 02:24:17;;;;;;;17.48;10.80;;;;;;;;;;5049708;28;20021;-70
2021/03/05 02:26:55;;;;;;;21.27;12.25;;;;;;;;;;5051313;28;20419;-73
2021/03/05 02:29:39;;;;;;;24.17;12.95;;;;;;;;;;5051323;28;20481;-70
2021/03/05 02:32:24;;;;;;;19.92;12.45;;;;;;;;;;5044246;28;20103;-71
2021/03/05 02:34:51;;;;;;;21.65;12.13;;;;;;;;;;5051256;28;20527;-70
2021/03/05 02:37:18;;;;;;;22.77;12.75;;;;;;;;;;5051396;28;20029;-70
2021/03/05 02:39:44;;;;;;;26.05;14.60;;;;;;;;;;5033369;28;20128;-70
2021/03/05 02:42:14;;;;;;;22.75;13.57;;;;;;;;;;5050398;28;20493;-70
2021/03/05 02:44:47;;;;;;;24.77;12.77;;;;;;;;;;5033588;28;20025;-70
2021/03/05 02:47:14;;;;;;;24.50;14.55;;;;;;;;;;5050932;28;20057;-71
2021/03/05 02:49:41;;;;;;;29.85;15.63;;;;;;;;;;5051715;28;20091;-72
2021/03/05 02:52:12;;;;;;;26.13;15.32;;;;;;;;;;5051167;28;20017;-70
2021/03/05 02:54:40;;;;;;;26.88;14.90;;;;;;;;;;5046121;28;20041;-71
2021/03/05 02:57:07;;;;;;;26.23;14.40;;;;;;;;;;5032625;28;20825;-70
2021/03/05 02:59:33;;;;;;;26.80;14.52;;;;;;;;;;5051559;28;20025;-70
2021/03/05 03:02:00;;;;;;;27.35;16.15;;;;;;;;;;5050629;28;20036;-72
2021/03/05 03:04:28;;;;;;;26.92;15.40;;;;;;;;;;5050950;28;20044;-70
2021/03/05 03:06:55;;;;;;;23.55;13.95;;;;;;;;;;5060825;28;20032;-71
2021/03/05 03:09:22;;;;;;;24.52;14.57;;;;;;;;;;5053859;28;20025;-71
2021/03/05 03:11:48;;;;;;;22.55;13.52;;;;;;;;;;5054559;28;20037;-70
2021/03/05 03:14:15;;;;;;;23.77;12.43;;;;;;;;;;5053367;28;20041;-72
2021/03/05 03:16:43;;;;;;;21.98;13.02;;;;;;;;;;5054278;28;20021;-73
2021/03/05 03:19:11;;;;;;;23.95;13.98;;;;;;;;;;5048105;28;20025;-71
2021/03/05 03:21:37;;;;;;;25.38;13.15;;;;;;;;;;5048160;28;20025;-72
2021/03/05 03:24:03;;;;;;;22.17;13.00;;;;;;;;;;5054592;28;20078;-71
2021/03/05 03:26:29;;;;;;;23.40;12.18;;;;;;;;;;5054565;28;20025;-70
2021/03/05 03:28:56;;;;;;;22.15;12.38;;;;;;;;;;5054615;28;20025;-70
2021/03/05 03:31:22;;;;;;;20.77;11.18;;;;;;;;;;5034733;28;20048;-71
2021/03/05 03:33:48;;;;;;;17.83;10.90;;;;;;;;;;5039757;28;20184;-70
2021/03/05 03:36:15;;;;;;;19.05;11.13;;;;;;;;;;5054368;28;20021;-71
2021/03/05 03:38:41;;;;;;;21.85;11.63;;;;;;;;;;5059568;28;20063;-71
2021/03/05 03:41:07;;;;;;;20.38;10.85;;;;;;;;;;5074250;28;20104;-72
2021/03/05 03:43:33;;;;;;;19.55;11.05;;;;;;;;;;5069185;28;20028;-72
2021/03/05 03:45:59;;;;;;;21.88;12.25;;;;;;;;;;5054133;28;20099;-70
2021/03/05 03:48:27;;;;;;;18.67;11.75;;;;;;;;;;5032331;28;20021;-70
2021/03/05 03:51:03;;;;;;;17.35;11.18;;;;;;;;;;5034377;28;20026;-72
2021/03/05 03:53:30;;;;;;;20.40;12.27;;;;;;;;;;5033966;28;20080;-70
2021/03/05 03:55:56;;;;;;;18.83;11.73;;;;;;;;;;5047765;28;20036;-73
2021/03/05 03:58:27;;;;;;;21.88;11.82;;;;;;;;;;5035796;28;20025;-71
2021/03/05 04:00:59;;;;;;;25.30;12.77;;;;;;;;;;5053613;28;20016;-70
2021/03/05 04:03:26;;;;;;;21.77;13.13;;;;;;;;;;5053712;28;20474;-70
2021/03/05 04:05:52;;;;;;;23.98;13.48;;;;;;;;;;5029280;28;20445;-70
2021/03/05 04:08:19;;;;;;;20.02;11.85;;;;;;;;;;5045393;28;20052;-72
2021/03/05 04:10:46;;;;;;;23.23;12.88;;;;;;;;;;5036024;28;20028;-70
2021/03/05 04:13:13;;;;;;;29.63;14.68;;;;;;;;;;5035260;28;20443;-73
2021/03/05 04:15:39;;;;;;;21.88;12.50;;;;;;;;;;5052968;28;20067;-70
2021/03/05 04:18:06;;;;;;;22.80;13.63;;;;;;;;;;5053812;28;20048;-73
2021/03/05 04:20:35;;;;;;;31.00;14.50;;;;;;;;;;5052989;28;20100;-72
2021/03/05 04:23:02;;;;;;;30.80;15.63;;;;;;;;;;5052661;28;20055;-71
2021/03/05 04:25:28;;;;;;;24.77;14.88;;;;;;;;;;5052970;28;20043;-70
2021/03/05 04:27:54;;;;;;;25.42;13.57;;;;;;;;;;5035489;28;20136;-70
2021/03/05 04:30:20;;;;;;;23.50;13.25;;;;;;;;;;5052978;28;20386;-70
2021/03/05 04:32:46;;;;;;;23.52;12.90;;;;;;;;;;5053046;28;20049;-73
2021/03/05 04:35:12;;;;;;;26.42;12.38;;;;;;;;;;5052999;28;20032;-71
2021/03/05 04:37:39;;;;;;;23.92;13.73;;;;;;;;;;5053196;28;20021;-70
2021/03/05 04:40:07;;;;;;;25.02;12.18;;;;;;;;;;5029576;28;20131;-71
2021/03/05 04:42:33;;;;;;;18.77;12.02;;;;;;;;;;5052685;28;20033;-71
2021/03/05 04:44:59;;;;;;;21.83;12.25;;;;;;;;;;5052717;28;20394;-70
2021/03/05 04:47:25;;;;;;;16.95;10.80;;;;;;;;;;5052704;28;20048;-70
2021/03/05 04:49:52;;;;;;;23.67;13.50;;;;;;;;;;5052634;28;20544;-71
2021/03/05 04:52:18;;;;;;;23.92;12.60;;;;;;;;;;5052904;28;20366;-72
2021/03/05 04:54:44;;;;;;;22.50;12.77;;;;;;;;;;5052653;28;20041;-72
2021/03/05 04:57:10;;;;;;;21.65;12.27;;;;;;;;;;5034916;28;20024;-71
2021/03/05 04:59:36;;;;;;;20.38;12.07;;;;;;;;;;5034359;28;20108;-71
2021/03/05 05:02:02;;;;;;;21.02;12.35;;;;;;;;;;5052391;28;20395;-71
2021/03/05 05:04:28;;;;;;;20.20;11.73;;;;;;;;;;5052342;28;20029;-71
2021/03/05 05:06:54;;;;;;;22.40;12.50;;;;;;;;;;5043190;28;20036;-71
2021/03/05 05:09:21;;;;;;;23.58;12.88;;;;;;;;;;5051769;28;20059;-70
2021/03/05 05:11:47;;;;;;;20.23;11.65;;;;;;;;;;5052626;28;20111;-71
2021/03/05 05:14:13;;;;;;;21.60;12.73;;;;;;;;;;5033577;28;20036;-71
2021/03/05 05:16:39;;;;;;;19.45;12.23;;;;;;;;;;5033527;28;20562;-71
2021/03/05 05:19:05;;;;;;;28.17;12.75;;;;;;;;;;5052677;28;20032;-70
2021/03/05 05:21:32;;;;;;;22.52;12.10;;;;;;;;;;5034207;28;20116;-71
2021/03/05 05:23:58;;;;;;;19.35;11.45;;;;;;;;;;5052093;28;20079;-71
2021/03/05 05:26:24;;;;;;;23.50;11.57;;;;;;;;;;5034740;28;20056;-71
2021/03/05 05:28:50;;;;;;;19.77;11.80;;;;;;;;;;5051964;28;20071;-73
2021/03/05 05:31:17;;;;;;;24.05;13.95;;;;;;;;;;5049098;28;20040;-71
2021/03/05 05:33:43;;;;;;;19.15;12.60;;;;;;;;;;5051640;28;20115;-74
2021/03/05 05:36:09;;;;;;;25.10;14.07;;;;;;;;;;5034403;28;20021;-72
2021/03/05 05:38:35;;;;;;;23.30;13.15;;;;;;;;;;5033893;28;20029;-71
2021/03/05 05:41:01;;;;;;;22.17;13.25;;;;;;;;;;5053949;28;20040;-74
2021/03/05 05:43:31;;;;;;;25.00;14.70;;;;;;;;;;5051485;28;20047;-73
2021/03/05 05:46:10;;;;;;;30.45;14.93;;;;;;;;;;5051835;28;20025;-71
2021/03/05 05:48:36;;;;;;;26.73;14.82;;;;;;;;;;5043588;28;20021;-74
2021/03/05 05:51:03;;;;;;;23.63;13.82;;;;;;;;;;5052585;28;20025;-71
2021/03/05 05:53:35;;;;;;;22.92;14.18;;;;;;;;;;5033418;28;20039;-76
2021/03/05 05:56:01;;;;;;;36.22;15.85;;;;;;;;;;5052144;28;20071;-77
2021/03/05 05:58:28;;;;;;;30.58;15.90;;;;;;;;;;5051371;28;20107;-73
2021/03/05 06:00:55;;;;;;;28.70;16.38;;;;;;;;;;5051879;28;20067;-75
2021/03/05 06:03:23;;;;;;;124.40;52.15;;;;;;;;;;5041446;28;20408;-74
2021/03/05 06:05:50;;;;;;;180.38;77.20;;;;;;;;;;5047852;28;20036;-72
2021/03/05 06:08:16;;;;;;;291.88;101.13;;;;;;;;;;5050628;28;20381;-73
2021/03/05 06:10:42;;;;;;;317.98;111.78;;;;;;;;;;5033687;28;20049;-77
2021/03/05 06:13:08;;;;;;;327.23;109.72;;;;;;;;;;5051541;28;20037;-70
2021/03/05 06:15:34;;;;;;;299.98;101.07;;;;;;;;;;5051083;28;20099;-72
2021/03/05 06:18:00;;;;;;;259.30;90.38;;;;;;;;;;5033951;28;20389;-71
2021/03/05 06:20:43;;;;;;;298.48;104.00;;;;;;;;;;5050583;28;20087;-71
2021/03/05 06:23:12;;;;;;;;;;;;;;;;;;5015684;28;20032;-72
2021/03/05 06:25:38;;;;;;;183.80;61.65;;;;;;;;;;5047502;28;20288;-72
2021/03/05 06:28:11;;;;;;;175.45;65.50;;;;;;;;;;5033231;28;20071;-73
2021/03/05 06:30:37;;;;;;;170.73;59.35;;;;;;;;;;5033504;28;20029;-70
2021/03/05 06:33:03;;;;;;;169.38;58.13;;;;;;;;;;5051120;28;20076;-71
2021/03/05 06:35:29;;;;;;;152.15;55.63;;;;;;;;;;5050095;28;20480;-71
2021/03/05 06:37:55;;;;;;;157.02;57.10;;;;;;;;;;5033324;28;20025;-71
2021/03/05 06:40:21;;;;;;;126.80;47.38;;;;;;;;;;5045252;28;20029;-71
2021/03/05 06:42:50;;;;;;;128.75;47.97;;;;;;;;;;5053042;28;20100;-72
2021/03/05 06:45:17;;;;;;;129.85;48.47;;;;;;;;;;5054908;28;20065;-72
2021/03/05 06:48:01;;;;;;;130.98;46.33;;;;;;;;;;5055133;28;20492;-78
2021/03/05 06:50:27;;;;;;;121.35;44.75;;;;;;;;;;5054918;28;20040;-76
2021/03/05 06:52:54;;;;;;;109.00;46.35;;;;;;;;;;5054633;28;20501;-73
2021/03/05 06:55:20;;;;;;;106.70;41.65;;;;;;;;;;5051869;28;20109;-70
2021/03/05 06:57:46;;;;;;;97.22;40.63;;;;;;;;;;5068096;28;20111;-77
2021/03/05 07:00:19;;;;;;;104.22;38.65;;;;;;;;;;5044998;28;20025;-71
2021/03/05 07:02:45;;;;;;;107.57;38.95;;;;;;;;;;5036896;28;20025;-71
2021/03/05 07:05:12;;;;;;;82.93;35.65;;;;;;;;;;5036482;28;20407;-76
2021/03/05 07:07:45;;;;;;;84.75;33.10;;;;;;;;;;5054367;28;20102;-70
2021/03/05 07:10:12;;;;;;;93.57;35.28;;;;;;;;;;5054888;28;20025;-71
2021/03/05 07:12:38;;;;;;;92.45;33.22;;;;;;;;;;5050759;28;20029;-73
2021/03/05 07:15:06;;;;;;;84.85;32.03;;;;;;;;;;5054105;28;20064;-75
2021/03/05 07:17:33;;;;;;;82.70;30.65;;;;;;;;;;5036756;28;20427;-72
2021/03/05 07:19:59;;;;;;;70.47;29.52;;;;;;;;;;5023323;28;20035;-71
2021/03/05 07:22:27;;;;;;;82.00;30.23;;;;;;;;;;5033416;28;20036;-72
2021/03/05 07:24:54;;;;;;;69.32;26.23;;;;;;;;;;5034371;28;20461;-72
2021/03/05 07:27:22;;;;;;;69.95;27.05;;;;;;;;;;5034598;28;20084;-73
2021/03/05 07:29:48;;;;;;;69.53;27.13;;;;;;;;;;5035956;28;20048;-71
2021/03/05 07:32:22;;;;;;;60.72;24.75;;;;;;;;;;5034367;28;20603;-71
2021/03/05 07:34:57;;;;;;;55.22;23.90;;;;;;;;;;5053041;28;20170;-71
2021/03/05 07:37:47;;;;;;;64.47;24.20;;;;;;;;;;5036037;28;20091;-71
2021/03/05 07:40:14;;;;;;;53.33;23.10;;;;;;;;;;5025759;28;20044;-73
2021/03/05 07:42:40;;;;;;;54.83;22.50;;;;;;;;;;5035452;28;20021;-72
2021/03/05 07:45:07;;;;;;;50.10;20.20;;;;;;;;;;5053883;28;20059;-71
2021/03/05 07:47:34;;;;;;;43.30;18.70;;;;;;;;;;5035610;28;20082;-71
2021/03/05 07:50:01;;;;;;;40.40;16.75;;;;;;;;;;5054164;28;20029;-76
2021/03/05 07:52:27;;;;;;;44.05;16.88;;;;;;;;;;5053140;28;20095;-71
2021/03/05 07:54:53;;;;;;;39.30;17.17;;;;;;;;;;5052294;28;20477;-72
2021/03/05 07:57:19;;;;;;;37.78;14.57;;;;;;;;;;5053944;28;20021;-74
2021/03/05 07:59:46;;;;;;;35.38;14.38;;;;;;;;;;5035889;28;20032;-71
2021/03/05 08:02:13;;;;;;;35.45;15.20;;;;;;;;;;5035985;28;20515;-74
2021/03/05 08:04:53;;;;;;;31.70;13.65;;;;;;;;;;5050836;28;20118;-72
2021/03/05 08:07:23;;;;;;;27.58;12.52;;;;;;;;;;5035819;28;20085;-71
2021/03/05 08:09:49;;;;;;;33.63;13.43;;;;;;;;;;5053195;28;20017;-72
2021/03/05 08:12:37;;;;;;;32.70;12.38;;;;;;;;;;5053205;28;20029;-77
2021/03/05 08:15:10;;;;;;;33.35;11.80;;;;;;;;;;5046339;28;20120;-73
2021/03/05 08:17:43;;;;;;;27.30;12.13;;;;;;;;;;5052444;28;20363;-76
2021/03/05 08:20:19;;;;;;;23.67;10.15;;;;;;;;;;5051571;28;20086;-73
2021/03/05 08:22:57;;;;;;;23.73;10.13;;;;;;;;;;5038935;28;20067;-71
2021/03/05 08:25:24;;;;;;;19.33;9.45;;;;;;;;;;5052728;28;20040;-71
2021/03/05 08:27:50;;;;;;;21.73;9.48;;;;;;;;;;5052954;28;20025;-70
2021/03/05 08:30:18;;;;;;;24.95;10.43;;;;;;;;;;5052982;28;20504;-72
2021/03/05 08:32:45;;;;;;;20.02;9.77;;;;;;;;;;5052538;28;20120;-71
2021/03/05 08:35:16;;;;;;;21.20;9.00;;;;;;;;;;5053239;28;20057;-72
2021/03/05 08:37:43;;;;;;;18.60;8.65;;;;;;;;;;5051767;28;20029;-72
2021/03/05 08:40:12;;;;;;;19.38;8.45;;;;;;;;;;5052730;28;20366;-71
2021/03/05 08:42:40;;;;;;;19.15;8.40;;;;;;;;;;5034277;28;20397;-72
2021/03/05 08:45:10;;;;;;;18.95;7.72;;;;;;;;;;5051862;28;20028;-71
2021/03/05 08:47:37;;;;;;;15.32;7.47;;;;;;;;;;5052587;28;20029;-70
2021/03/05 08:50:04;;;;;;;15.48;7.78;;;;;;;;;;5052799;28;20377;-72
2021/03/05 08:52:30;;;;;;;15.20;7.10;;;;;;;;;;5034531;28;20029;-71
2021/03/05 08:54:56;;;;;;;19.42;7.68;;;;;;;;;;5026202;28;20044;-72
2021/03/05 08:57:22;;;;;;;15.35;6.18;;;;;;;;;;5031528;28;20060;-71
2021/03/05 08:59:51;;;;;;;18.33;6.13;;;;;;;;;;5050977;28;20033;-73
2021/03/05 09:02:18;;;;;;;15.95;6.80;;;;;;;;;;5052435;28;20017;-73
2021/03/05 09:04:44;;;;;;;17.75;6.55;;;;;;;;;;5054826;28;20025;-73
2021/03/05 09:07:13;;;;;;;12.82;5.80;;;;;;;;;;5052397;28;20043;-72
2021/03/05 09:09:40;;;;;;;11.90;5.28;;;;;;;;;;5052326;28;20500;-74
2021/03/05 09:12:07;;;;;;;14.05;5.65;;;;;;;;;;5034230;28;20479;-76
2021/03/05 09:14:33;;;;;;;13.68;5.00;;;;;;;;;;5051905;28;20124;-74
2021/03/05 09:17:00;;;;;;;14.15;5.43;;;;;;;;;;5051929;28;20025;-72
2021/03/05 09:19:41;;;;;;;13.98;5.45;;;;;;;;;;5052319;28;20111;-71
2021/03/05 09:22:10;;;;;;;11.38;4.95;;;;;;;;;;5031953;28;20493;-71
2021/03/05 09:25:06;;;;;;;8.68;4.45;;;;;;;;;;5044323;28;20071;-74
2021/03/05 09:27:32;;;;;;;10.40;4.03;;;;;;;;;;5031247;28;20116;-73
2021/03/05 09:29:59;;;;;;;10.00;4.47;;;;;;;;;;5033724;28;20032;-75
2021/03/05 09:32:25;;;;;;;8.98;4.60;;;;;;;;;;5049260;28;20405;-71
2021/03/05 09:34:53;;;;;;;8.55;4.20;;;;;;;;;;5032683;28;20091;-72
2021/03/05 09:37:37;;;;;;;10.70;4.35;;;;;;;;;;5031822;28;20469;-72
2021/03/05 09:40:03;;;;;;;7.82;3.75;;;;;;;;;;5030875;28;20101;-74
2021/03/05 09:42:46;;;;;;;10.55;4.05;;;;;;;;;;5019382;28;20041;-71
2021/03/05 09:45:12;;;;;;;;;;;;;;;;;;5015127;28;20632;-73
2021/03/05 09:47:47;;;;;;;12.52;4.15;;;;;;;;;;5031367;28;20439;-71
2021/03/05 09:50:18;;;;;;;7.80;3.40;;;;;;;;;;5014429;28;20485;-71
2021/03/05 09:52:44;;;;;;;8.43;3.65;;;;;;;;;;5028719;28;20389;-71
2021/03/05 09:55:10;;;;;;;7.65;3.20;;;;;;;;;;5034165;28;20087;-71
2021/03/05 09:57:39;;;;;;;10.65;3.83;;;;;;;;;;5049381;28;20025;-71
2021/03/05 10:00:05;;;;;;;10.75;4.00;;;;;;;;;;5051957;28;20025;-78
2021/03/05 10:02:36;;;;;;;10.77;4.75;;;;;;;;;;5036505;28;20510;-68
2021/03/05 10:05:02;;;;;;;13.20;4.75;;;;;;;;;;5047756;28;20477;-68
2021/03/05 10:07:28;;;;;;;9.45;4.45;;;;;;;;;;5047480;28;20041;-76
2021/03/05 10:10:07;;;;;;;9.95;4.15;;;;;;;;;;5064269;28;20087;-68
2021/03/05 10:12:33;;;;;;;13.98;4.05;;;;;;;;;;5013341;28;20052;-66
2021/03/05 10:15:06;;;;;;;9.65;3.78;;;;;;;;;;5014510;28;20033;-68
2021/03/05 10:17:39;;;;;;;8.77;4.10;;;;;;;;;;5044133;28;20029;-68
2021/03/05 10:20:05;;;;;;;9.95;3.63;;;;;;;;;;5048113;28;20146;-68
2021/03/05 10:22:32;;;;;;;6.45;3.67;;;;;;;;;;5074968;28;20025;-68
2021/03/05 10:24:58;;;;;;;6.93;3.13;;;;;;;;;;5024199;28;20067;-74
2021/03/05 10:27:24;;;;;;;14.18;3.83;;;;;;;;;;5034187;28;20049;-68
2021/03/05 10:29:57;;;;;;;10.43;3.63;;;;;;;;;;5036292;28;20493;-74
2021/03/05 10:32:30;;;;;;;10.52;4.10;;;;;;;;;;5049370;28;20046;-72
2021/03/05 10:35:00;;;;;;;9.75;3.85;;;;;;;;;;5037739;28;20123;-69
2021/03/05 10:37:27;;;;;;;9.60;4.75;;;;;;;;;;5043383;28;20357;-73
2021/03/05 10:39:53;;;;;;;9.77;4.95;;;;;;;;;;5055601;28;20032;-72
2021/03/05 10:42:20;;;;;;;13.77;6.65;;;;;;;;;;5055061;28;20031;-70
2021/03/05 10:44:47;;;;;;;11.05;4.32;;;;;;;;;;5055630;28;20453;-68
2021/03/05 10:47:14;;;;;;;11.77;4.65;;;;;;;;;;5054567;28;20059;-70
2021/03/05 10:49:41;;;;;;;7.53;4.40;;;;;;;;;;5054697;28;20028;-72
2021/03/05 10:52:10;;;;;;;5.85;2.97;;;;;;;;;;5054244;28;20052;-70
2021/03/05 10:54:36;;;;;;;8.82;3.35;;;;;;;;;;5054445;28;20033;-74
2021/03/05 10:57:03;;;;;;;8.63;3.42;;;;;;;;;;5052935;28;20021;-77
2021/03/05 10:59:29;;;;;;;7.47;3.10;;;;;;;;;;5034662;28;20029;-69
2021/03/05 11:01:56;;;;;;;9.07;3.10;;;;;;;;;;5035518;28;20036;-75
2021/03/05 11:04:23;;;;;;;5.05;2.53;;;;;;;;;;5054255;28;20029;-75
2021/03/05 11:06:50;;;;;;;11.95;3.50;;;;;;;;;;5054060;28;20112;-72
2021/03/05 11:09:20;;;;;;;6.40;3.35;;;;;;;;;;5054696;28;20607;-69
2021/03/05 11:11:46;;;;;;;6.18;3.40;;;;;;;;;;5036248;28;20028;-68
2021/03/05 11:14:13;;;;;;;8.15;4.20;;;;;;;;;;5033873;28;20037;-75
2021/03/05 11:16:39;;;;;;;8.73;5.28;;;;;;;;;;5048665;28;20167;-71
2021/03/05 11:19:05;;;;;;;11.68;4.93;;;;;;;;;;5051755;28;20094;-72
2021/03/05 11:21:32;;;;;;;10.60;4.35;;;;;;;;;;5034509;28;20048;-68
2021/03/05 11:23:58;;;;;;;9.43;4.45;;;;;;;;;;5051180;28;20103;-71
2021/03/05 11:26:24;;;;;;;8.55;5.20;;;;;;;;;;5057619;28;20028;-71
2021/03/05 11:28:51;;;;;;;9.48;5.13;;;;;;;;;;5073086;28;20435;-74
2021/03/05 11:31:17;;;;;;;10.32;6.03;;;;;;;;;;5061821;28;20039;-72
2021/03/05 11:33:44;;;;;;;10.85;5.85;;;;;;;;;;5035582;28;20068;-69
2021/03/05 11:36:11;;;;;;;10.82;5.40;;;;;;;;;;5053301;28;20028;-75
2021/03/05 11:38:38;;;;;;;11.00;6.60;;;;;;;;;;5035600;28;20052;-69
2021/03/05 11:41:04;;;;;;;9.63;6.30;;;;;;;;;;5054084;28;20025;-68
2021/03/05 11:43:30;;;;;;;10.95;6.28;;;;;;;;;;5053412;28;20438;-72
2021/03/05 11:45:56;;;;;;;8.10;5.28;;;;;;;;;;5053686;28;20023;-73
2021/03/05 11:48:22;;;;;;;8.70;5.40;;;;;;;;;;5052562;28;20032;-71
2021/03/05 11:50:49;;;;;;;9.38;5.38;;;;;;;;;;5053481;28;20025;-73
2021/03/05 11:53:15;;;;;;;7.47;4.60;;;;;;;;;;5053299;28;20025;-69
2021/03/05 11:55:41;;;;;;;9.63;5.00;;;;;;;;;;5053240;28;20060;-71
2021/03/05 11:58:07;;;;;;;9.93;4.28;;;;;;;;;;5053264;28;20090;-71
2021/03/05 12:00:33;;;;;;;7.53;4.57;;;;;;;;;;5053565;28;20525;-71
2021/03/05 12:03:00;;;;;;;7.13;4.07;;;;;;;;;;5053227;28;20094;-69
2021/03/05 12:05:26;;;;;;;7.70;4.40;;;;;;;;;;5051475;28;20029;-69
2021/03/05 12:07:52;;;;;;;7.30;4.65;;;;;;;;;;5053709;28;20024;-70
2021/03/05 12:10:18;;;;;;;6.78;4.00;;;;;;;;;;5053072;28;20029;-68
2021/03/05 12:12:44;;;;;;;7.20;3.83;;;;;;;;;;5053441;28;20052;-78
2021/03/05 12:15:10;;;;;;;5.70;3.63;;;;;;;;;;5052375;28;20033;-69
2021/03/05 12:17:36;;;;;;;5.93;3.00;;;;;;;;;;5052758;28;20100;-75
2021/03/05 12:20:04;;;;;;;6.90;3.78;;;;;;;;;;5053048;28;20028;-73
2021/03/05 12:22:32;;;;;;;8.07;3.53;;;;;;;;;;5047846;28;20017;-66
2021/03/05 12:24:58;;;;;;;7.38;3.33;;;;;;;;;;5038476;28;20024;-66
2021/03/05 12:27:25;;;;;;;7.82;3.13;;;;;;;;;;5064817;28;20374;-76
2021/03/05 12:29:51;;;;;;;7.20;3.83;;;;;;;;;;5055828;28;20021;-73
2021/03/05 12:32:17;;;;;;;6.70;2.80;;;;;;;;;;5037355;28;20049;-67
2021/03/05 12:34:43;;;;;;;5.63;3.05;;;;;;;;;;5052996;28;20098;-73
2021/03/05 12:37:10;;;;;;;7.60;2.92;;;;;;;;;;5052921;28;20037;-71
2021/03/05 12:39:36;;;;;;;7.88;3.30;;;;;;;;;;5052222;28;20017;-74
2021/03/05 12:42:02;;;;;;;7.18;3.72;;;;;;;;;;5035662;28;20548;-72
2021/03/05 12:44:28;;;;;;;6.15;3.40;;;;;;;;;;5053863;28;20029;-70
2021/03/05 12:46:54;;;;;;;6.75;3.30;;;;;;;;;;5053627;28;20028;-78
2021/03/05 12:49:20;;;;;;;6.80;2.80;;;;;;;;;;5052901;28;20040;-68
2021/03/05 12:51:46;;;;;;;6.70;3.55;;;;;;;;;;5052887;28;20017;-71
2021/03/05 12:54:12;;;;;;;6.88;3.63;;;;;;;;;;5034693;28;20033;-71
2021/03/05 12:56:38;;;;;;;8.65;3.20;;;;;;;;;;5046211;28;20085;-72
2021/03/05 12:59:05;;;;;;;7.95;3.55;;;;;;;;;;5036215;28;20025;-74
2021/03/05 13:01:31;;;;;;;9.55;3.03;;;;;;;;;;5043536;28;20023;-71
2021/03/05 13:03:57;;;;;;;7.78;3.33;;;;;;;;;;5034056;28;20033;-76
2021/03/05 13:06:23;;;;;;;5.45;2.90;;;;;;;;;;5051841;28;20377;-78
2021/03/05 13:08:49;;;;;;;6.97;2.70;;;;;;;;;;5040969;28;20033;-75
2021/03/05 13:11:15;;;;;;;5.95;3.08;;;;;;;;;;5052936;28;20094;-70
2021/03/05 13:13:41;;;;;;;6.65;3.08;;;;;;;;;;5046191;28;20036;-71
2021/03/05 13:16:07;;;;;;;5.75;3.17;;;;;;;;;;5044205;28;20033;-69
2021/03/05 13:18:33;;;;;;;6.00;3.00;;;;;;;;;;5052489;28;20053;-70
2021/03/05 13:20:59;;;;;;;4.80;2.60;;;;;;;;;;5034321;28;20499;-75
2021/03/05 13:23:26;;;;;;;6.82;3.08;;;;;;;;;;5034443;28;20124;-67
2021/03/05 13:25:52;;;;;;;6.13;2.78;;;;;;;;;;5050974;28;20055;-70
2021/03/05 13:28:18;;;;;;;5.03;2.75;;;;;;;;;;5051929;28;20021;-69
2021/03/05 13:30:44;;;;;;;5.25;2.83;;;;;;;;;;5045012;28;20082;-67
2021/03/05 13:33:10;;;;;;;4.45;2.70;;;;;;;;;;5031840;28;20053;-78
2021/03/05 13:35:37;;;;;;;5.93;2.72;;;;;;;;;;5051277;28;20028;-73
2021/03/05 13:38:03;;;;;;;7.50;3.08;;;;;;;;;;5051958;28;20021;-67
2021/03/05 13:40:29;;;;;;;7.70;3.33;;;;;;;;;;5033534;28;20166;-71
2021/03/05 13:42:55;;;;;;;8.90;2.63;;;;;;;;;;5051585;28;20025;-71
2021/03/05 13:45:22;;;;;;;15.43;3.63;;;;;;;;;;5051440;28;20016;-68
2021/03/05 13:47:48;;;;;;;13.07;3.83;;;;;;;;;;5045015;28;20021;-69
2021/03/05 13:50:14;;;;;;;6.22;3.83;;;;;;;;;;5033630;28;20029;-80
2021/03/05 13:52:40;;;;;;;7.60;3.35;;;;;;;;;;5049252;28;20041;-76
2021/03/05 13:55:07;;;;;;;8.85;3.40;;;;;;;;;;5049938;28;20043;-76
2021/03/05 13:57:33;;;;;;;13.38;3.20;;;;;;;;;;5050549;28;20082;-74
2021/03/05 13:59:59;;;;;;;15.32;4.20;;;;;;;;;;5050212;28;20032;-77
2021/03/05 14:02:25;;;;;;;7.35;3.05;;;;;;;;;;5050029;28;20066;-69
2021/03/05 14:04:51;;;;;;;7.35;3.28;;;;;;;;;;5047989;28;20025;-70
2021/03/05 14:07:17;;;;;;;8.20;3.35;;;;;;;;;;5049785;28;20013;-68
2021/03/05 14:09:43;;;;;;;7.45;3.17;;;;;;;;;;5037552;28;20071;-71
2021/03/05 14:12:09;;;;;;;9.02;3.60;;;;;;;;;;5032537;28;20028;-79
2021/03/05 14:14:36;;;;;;;6.82;3.22;;;;;;;;;;5050392;28;20072;-72
2021/03/05 14:17:02;;;;;;;7.35;3.75;;;;;;;;;;5032509;28;20020;-71
2021/03/05 14:19:29;;;;;;;9.02;3.28;;;;;;;;;;5050249;28;20166;-70
2021/03/05 14:21:55;;;;;;;7.38;3.55;;;;;;;;;;5041996;28;20021;-72
2021/03/05 14:24:21;;;;;;;6.82;3.45;;;;;;;;;;5030486;28;20025;-69
2021/03/05 14:26:47;;;;;;;9.20;3.70;;;;;;;;;;5030137;28;20101;-70
2021/03/05 14:29:13;;;;;;;7.53;4.00;;;;;;;;;;5030347;28;20021;-70
2021/03/05 14:31:40;;;;;;;9.20;3.58;;;;;;;;;;5030328;28;20053;-69
2021/03/05 14:34:06;;;;;;;9.70;3.85;;;;;;;;;;5048174;28;20578;-78
2021/03/05 14:36:32;;;;;;;8.30;3.75;;;;;;;;;;5049872;28;20021;-67
2021/03/05 14:38:58;;;;;;;7.28;3.78;;;;;;;;;;5036460;28;20025;-67
2021/03/05 14:41:24;;;;;;;6.95;3.47;;;;;;;;;;5061280;28;20096;-72
2021/03/05 14:43:50;;;;;;;8.80;4.03;;;;;;;;;;5033151;28;20033;-79
2021/03/05 14:46:16;;;;;;;8.40;3.20;;;;;;;;;;5051070;28;20049;-73
2021/03/05 14:48:43;;;;;;;9.10;4.60;;;;;;;;;;5034373;28;20029;-78
2021/03/05 14:51:09;;;;;;;8.70;5.00;;;;;;;;;;5052760;28;20108;-77
2021/03/05 14:53:35;;;;;;;13.00;5.05;;;;;;;;;;5043036;28;20524;-75
2021/03/05 14:56:02;;;;;;;9.77;4.85;;;;;;;;;;5032511;28;20036;-80
2021/03/05 14:58:28;;;;;;;7.95;4.78;;;;;;;;;;5033499;28;20234;-83
2021/03/05 15:00:55;;;;;;;14.38;5.05;;;;;;;;;;5033061;28;20025;-85
2021/03/05 15:03:21;;;;;;;16.75;5.07;;;;;;;;;;5033245;28;20064;-82
2021/03/05 15:05:48;;;;;;;11.35;4.78;;;;;;;;;;5036106;28;20362;-85
2021/03/05 15:08:15;;;;;;;13.45;4.60;;;;;;;;;;5036170;28;20025;-83
2021/03/05 15:10:41;;;;;;;8.60;4.50;;;;;;;;;;5054097;28;20016;-75
2021/03/05 15:13:08;;;;;;;9.80;4.88;;;;;;;;;;5054226;28;20036;-85
2021/03/05 15:15:35;;;;;;;8.85;4.30;;;;;;;;;;5035725;28;20037;-84
2021/03/05 15:18:01;;;;;;;8.75;4.28;;;;;;;;;;5052139;28;20098;-84
2021/03/05 15:20:28;;;;;;;12.82;4.45;;;;;;;;;;5051378;28;20058;-78
2021/03/05 15:22:55;;;;;;;9.80;4.55;;;;;;;;;;5036743;28;20556;-83
2021/03/05 15:25:21;;;;;;;6.25;4.00;;;;;;;;;;5054537;28;20028;-82
2021/03/05 15:27:47;;;;;;;16.50;4.55;;;;;;;;;;5054060;28;20025;-73
2021/03/05 15:30:14;;;;;;;10.32;3.97;;;;;;;;;;5054089;28;20691;-82
2021/03/05 15:32:41;;;;;;;13.82;5.10;;;;;;;;;;5036338;28;20036;-75
2021/03/05 15:35:07;;;;;;;10.05;4.60;;;;;;;;;;5036291;28;20044;-75
2021/03/05 15:37:33;;;;;;;8.05;4.47;;;;;;;;;;5036608;28;20017;-81
2021/03/05 15:39:59;;;;;;;9.50;4.72;;;;;;;;;;5050813;28;20032;-72
2021/03/05 15:42:26;;;;;;;8.73;4.57;;;;;;;;;;5051463;28;21331;-81
2021/03/05 15:44:52;;;;;;;10.57;5.47;;;;;;;;;;5033978;28;20032;-78
2021/03/05 15:47:18;;;;;;;10.02;5.32;;;;;;;;;;5036110;28;20124;-68
2021/03/05 15:49:44;;;;;;;13.05;5.65;;;;;;;;;;5047540;28;20017;-67
2021/03/05 15:52:11;;;;;;;19.92;6.57;;;;;;;;;;5048719;28;20036;-68
2021/03/05 15:54:37;;;;;;;19.90;6.10;;;;;;;;;;5034688;28;20037;-66
2021/03/05 15:57:03;;;;;;;12.10;5.32;;;;;;;;;;5051977;28;20105;-67
2021/03/05 15:59:29;;;;;;;10.70;4.68;;;;;;;;;;5051852;28;20124;-66
2021/03/05 16:01:55;;;;;;;19.15;5.25;;;;;;;;;;5052412;28;20052;-67